Data for 06/12/2018

Time Sea-Level Adjusted Pressure Absolute Pressure Temperature Relative Humidity Dew Point   
(mb) (inHg) (mb) (inHg) (C) (F) (%) (C) (F)
00:05 1023 30.21 852 25.16 3 37.3 66 -2.8 26.9
00:10 1023 30.21 852 25.16 2.8 37.1 66 -3 26.7
00:15 1023 30.21 852 25.16 2.9 37.3 64 -3.2 26.2
00:20 1023 30.21 852 25.16 3 37.5 64 -3.2 26.3
00:25 1023 30.21 852 25.16 3 37.4 64 -3.1 26.3
00:30 1023 30.21 852 25.16 2.9 37.3 64 -3.2 26.3
00:35 1023 30.21 852 25.16 3.1 37.5 61 -3.7 25.3
00:40 1023 30.21 852 25.16 3.1 37.6 64 -3 26.5
00:45 1023 30.21 852 25.16 3 37.4 63 -3.3 26
00:50 1023 30.21 852 25.16 3 37.4 64 -3.1 26.4
00:55 1023 30.21 852 25.16 2.7 36.9 65 -3.1 26.3
01:00 1023 30.21 852 25.16 2.7 36.9 65 -3.2 26.2
01:05 1023 30.21 852 25.16 2.7 36.9 66 -3 26.5
01:10 1023 30.21 852 25.16 2.6 36.7 65 -3.3 26
01:15 1023 30.21 852 25.16 2.6 36.6 66 -3.1 26.4
01:20 1023 30.21 852 25.16 2.4 36.3 68 -3 26.6
01:25 1023 30.21 852 25.16 2.3 36.1 67 -3.2 26.3
01:30 1023 30.21 852 25.16 2.2 35.9 68 -3.1 26.5
01:35 1023 30.21 852 25.16 2 35.6 69 -3.1 26.4
01:40 1023 30.21 852 25.16 1.8 35.2 71 -3 26.7
01:45 1023 30.21 852 25.16 1.3 34.4 74 -2.8 27
01:50 1023 30.21 852 25.16 0.8 33.4 75 -3.1 26.4
01:55 1023 30.21 852 25.16 0.9 33.6 73 -3.4 25.9
02:00 1023 30.21 852 25.16 1.2 34.1 69 -3.8 25.1
02:05 1023 30.21 852 25.16 1.5 34.8 67 -3.9 25.1
02:10 1023 30.21 852 25.16 1.8 35.2 66 -4 24.8
02:15 1023 30.21 852 25.16 1.9 35.4 62 -4.6 23.7
02:20 1023 30.21 852 25.16 2.1 35.8 64 -3.9 24.9
02:25 1023 30.21 852 25.16 1.9 35.4 64 -4.2 24.4
02:30 1023 30.21 852 25.16 1.9 35.3 66 -3.9 25.1
02:35 1023 30.21 852 25.16 1.6 34.9 68 -3.7 25.4
02:40 1023 30.21 852 25.16 1.4 34.5 70 -3.6 25.6
02:45 1023 30.21 852 25.16 1.2 34.2 71 -3.5 25.7
02:50 1023 30.21 852 25.16 1.1 34 72 -3.4 25.9
02:55 1023 30.21 852 25.16 1 33.9 72 -3.5 25.8
03:00 1023 30.21 852 25.16 1 33.8 72 -3.5 25.7
03:05 1023 30.21 852 25.16 1 33.7 72 -3.5 25.7
03:10 1023 30.21 852 25.16 0.9 33.7 71 -3.6 25.4
03:15 1023 30.21 852 25.16 0.9 33.6 72 -3.6 25.5
03:20 1023 30.21 852 25.16 0.9 33.5 72 -3.7 25.4
03:25 1023 30.21 852 25.16 0.8 33.5 72 -3.7 25.3
03:30 1023 30.21 852 25.16 0.9 33.6 71 -3.8 25.2
03:35 1023 30.21 852 25.16 1 33.8 70 -3.8 25.2
03:40 1023 30.21 852 25.16 1.1 34 69 -3.9 24.9
03:45 1023 30.21 852 25.16 1.2 34.2 67 -4.2 24.5
03:50 1023 30.21 852 25.16 1.3 34.3 68 -4 24.7
03:55 1023 30.21 852 25.16 1.3 34.4 67 -4.2 24.5
04:00 1023 30.21 852 25.16 1.4 34.6 66 -4.2 24.5
04:05 1023 30.21 852 25.16 1.4 34.5 67 -4 24.7
04:10 1023 30.21 852 25.16 1.3 34.3 68 -4.1 24.7
04:15 1023 30.21 852 25.16 1.2 34.1 68 -4.2 24.5
04:20 1023 30.21 852 25.16 1.2 34.1 67 -4.2 24.4
04:25 1023 30.21 852 25.16 1.2 34.2 67 -4.3 24.2
04:30 1023 30.21 852 25.16 1.2 34.1 67 -4.3 24.2
04:35 1023 30.21 852 25.16 1.1 34 66 -4.4 24
04:40 1023 30.21 852 25.16 1.2 34.2 65 -4.6 23.8
04:45 1023 30.21 852 25.16 1.3 34.3 65 -4.6 23.8
04:50 1023 30.21 852 25.16 1.4 34.5 65 -4.6 23.7
04:55 1023 30.21 852 25.16 1.5 34.7 64 -4.5 23.8
05:00 1023 30.21 852 25.16 1.7 35 64 -4.4 24
05:05 1023 30.21 852 25.16 1.9 35.4 62 -4.5 23.9
05:10 1023 30.21 852 25.16 2.1 35.7 62 -4.5 24
05:15 1023 30.21 852 25.16 2.1 35.8 63 -4.3 24.3
05:20 1023 30.21 852 25.16 2 35.6 65 -3.9 25
05:25 1023 30.21 852 25.16 1.6 34.8 66 -4 24.7
05:30 1023 30.21 852 25.16 1.5 34.7 66 -4.1 24.6
05:35 1023 30.21 852 25.16 1.6 34.8 66 -4.2 24.5
05:40 1023 30.21 852 25.16 1.7 35.1 65 -4.1 24.6
05:45 1023 30.21 852 25.16 2 35.5 64 -4.2 24.4
05:50 1023 30.21 852 25.16 2.2 35.9 63 -4.1 24.7
05:55 1023 30.21 852 25.16 2.5 36.4 62 -4.1 24.5
06:00 1023 30.21 852 25.16 2.7 36.8 63 -3.7 25.3
06:05 1023 30.21 852 25.16 3 37.5 60 -3.9 24.9
06:10 1023 30.21 852 25.16 3.6 38.4 55 -4.6 23.7
06:15 1023 30.21 852 25.16 4.1 39.4 54 -4.5 23.9
06:20 1023 30.21 852 25.16 4.4 39.9 52 -4.7 23.5
06:25 1023 30.21 852 25.16 4.9 40.8 49 -4.9 23.1
06:30 1023 30.21 852 25.16 5.3 41.5 49 -4.7 23.6
06:35 1023 30.21 852 25.16 5.9 42.5 46 -4.8 23.4
06:40 1023 30.21 852 25.16 6.6 43.9 42 -5.2 22.6
06:45 1023 30.21 852 25.16 7.4 45.3 43 -4.5 23.9
06:50 1023 30.21 852 25.16 7.4 45.4 44 -4.2 24.5
06:55 1023 30.21 852 25.16 7.6 45.7 42 -4.4 24.1
07:00 1023 30.21 853 25.19 7.8 46 43 -4.1 24.7
07:05 1023 30.21 853 25.19 7.9 46.2 44 -3.5 25.7
07:10 1023 30.21 853 25.19 8 46.3 43 -3.7 25.3
07:15 1023 30.21 853 25.19 7.5 45.4 46 -3.4 25.9
07:20 1024 30.24 853 25.19 7.8 46 42 -4.2 24.4
07:25 1024 30.24 853 25.19 7.8 46 40 -5 22.9
07:30 1024 30.24 853 25.19 7.6 45.6 42 -4.4 24.1
07:35 1024 30.24 853 25.19 8 46.4 39 -5 23
07:40 1024 30.24 853 25.19 7.9 46.1 39 -5.2 22.6
07:45 1024 30.24 853 25.19 8.4 47.2 38 -5.2 22.6
07:50 1024 30.24 853 25.19 9 48.2 36 -5.2 22.7
07:55 1024 30.24 853 25.19 8.7 47.6 36 -5.7 21.8
08:00 1024 30.24 853 25.19 9 48.2 35 -5.7 21.8
08:05 1024 30.24 853 25.19 9 48.2 34 -6 21.1
08:10 1024 30.24 853 25.19 9.2 48.6 33 -6.3 20.6
08:15 1024 30.24 853 25.19 10.3 50.5 32 -5.8 21.5
08:20 1024 30.24 853 25.19 10.8 51.5 31 -5.5 22.1
08:25 1023 30.21 853 25.19 10.3 50.5 32 -5.5 22
08:30 1023 30.21 853 25.19 10.4 50.8 32 -5.6 21.9
08:35 1023 30.21 853 25.19 11.2 52.1 30 -5.5 22.1
08:40 1023 30.21 852 25.16 10.9 51.6 31 -5.5 22.2
08:45 1023 30.21 852 25.16 11.5 52.6 27 -6.7 19.9
08:50 1023 30.21 852 25.16 11.8 53.2 27 -6.7 19.9
08:55 1023 30.21 852 25.16 12.2 54 26 -6.8 19.8
09:00 1023 30.21 852 25.16 12.3 54.1 27 -6.2 20.8
09:05 1023 30.21 852 25.16 12.5 54.4 28 -5.6 22
09:10 1023 30.21 852 25.16 12.5 54.5 28 -5.6 21.9
09:15 1023 30.21 852 25.16 12.9 55.1 26 -6 21.1
09:20 1023 30.21 852 25.16 12.8 55 28 -5.4 22.3
09:25 1023 30.21 852 25.16 13 55.5 26 -5.9 21.3
09:30 1023 30.21 852 25.16 13.2 55.7 27 -5.6 21.9
09:35 1023 30.21 852 25.16 13.3 55.9 27 -5.5 22.1
09:40 1023 30.21 852 25.16 13.3 55.9 27 -5.4 22.3
09:45 1023 30.21 852 25.16 13.7 56.6 27 -4.9 23.1
09:50 1023 30.21 852 25.16 13.9 57.1 25 -5.8 21.5
09:55 1023 30.21 852 25.16 13.9 57 25 -5.6 21.9
10:00 1022 30.18 852 25.16 14.2 57.5 25 -5.3 22.4
10:05 1022 30.18 852 25.16 14.5 58.1 24 -5.7 21.8
10:10 1022 30.18 852 25.16 14.7 58.4 24 -5.6 22
10:15 1022 30.18 852 25.16 14.9 58.9 23 -5.9 21.3
10:20 1022 30.18 852 25.16 15.2 59.3 24 -5.2 22.7
10:25 1022 30.18 852 25.16 15 59.1 23 -5.6 21.9
10:30 1022 30.18 851 25.13 14.9 58.7 25 -5 23
10:35 1022 30.18 851 25.13 14.9 58.9 24 -5.1 22.7
10:40 1022 30.18 851 25.13 13.7 56.6 27 -4.8 23.4
10:45 1022 30.18 851 25.13 14.1 57.5 25 -5.6 21.9
10:50 1022 30.18 851 25.13 14.2 57.6 25 -5.3 22.5
10:55 1022 30.18 851 25.13 14.9 58.9 24 -5.4 22.3
11:00 1022 30.18 851 25.13 15.3 59.5 22 -6 21.2
11:05 1022 30.18 851 25.13 14.9 58.8 23 -6 21.2
11:10 1022 30.18 851 25.13 15.3 59.6 24 -4.8 23.3
11:15 1022 30.18 851 25.13 16 60.7 24 -4.6 23.6
11:20 1022 30.18 851 25.13 16.5 61.6 23 -4.5 24
11:25 1022 30.18 851 25.13 16.2 61.2 22 -5.6 22
11:30 1022 30.18 851 25.13 16.5 61.7 19 -7.1 19.3
11:35 1022 30.18 851 25.13 17.3 63.1 17 -7.6 18.3
11:40 1022 30.18 851 25.13 17.3 63.1 15 -9.6 14.7
11:45 1022 30.18 851 25.13 17.2 63 14 -10.5 13
11:50 1022 30.18 851 25.13 16.9 62.5 14 -10.6 12.9
11:55 1022 30.18 851 25.13 17.2 63 15 -9.3 15.2
12:00 1022 30.18 851 25.13 17.9 64.2 14 -10.3 13.5
12:05 1022 30.18 851 25.13 17.8 64 15 -9.3 15.2
12:10 1021 30.15 851 25.13 17.9 64.2 14 -10.1 13.8
12:15 1021 30.15 851 25.13 17.8 64.1 14 -10 13.9
12:20 1021 30.15 851 25.13 17.4 63.2 19 -6.7 19.9
12:25 1021 30.15 851 25.13 17.9 64.1 19 -5.7 21.7
12:30 1021 30.15 850 25.1 17.6 63.7 22 -4.5 24
12:35 1021 30.15 850 25.1 17.4 63.3 21 -5.2 22.6
12:40 1021 30.15 850 25.1 17.8 64 21 -4.4 24
12:45 1021 30.15 850 25.1 17.7 63.9 22 -4 24.8
12:50 1021 30.15 850 25.1 17.9 64.2 19 -6.1 21
12:55 1021 30.15 850 25.1 18.1 64.5 20 -5.1 22.8
13:00 1021 30.15 850 25.1 18 64.3 21 -4.7 23.5
13:05 1021 30.15 850 25.1 18.1 64.7 21 -4.4 24
13:10 1021 30.15 850 25.1 18 64.3 21 -4.5 23.9
13:15 1021 30.15 850 25.1 17.4 63.4 22 -4.6 23.7
13:20 1021 30.15 850 25.1 18.3 64.9 21 -4.1 24.6
13:25 1021 30.15 850 25.1 17.9 64.2 22 -4.2 24.4
13:30 1021 30.15 850 25.1 17.6 63.6 21 -4.8 23.4
13:35 1021 30.15 850 25.1 18 64.4 20 -5 23
13:40 1021 30.15 850 25.1 17.7 63.8 20 -5.7 21.7
13:45 1021 30.15 850 25.1 19 66.3 19 -4.9 23.1
13:50 1021 30.15 850 25.1 19.1 66.3 19 -4.7 23.5
13:55 1021 30.15 850 25.1 19.5 67.1 19 -4.9 23.2
14:00 1020 30.12 850 25.1 20.1 68.2 17 -5.2 22.6
14:05 1021 30.15 850 25.1 20.4 68.7 17 -5 22.9
14:10 1020 30.12 850 25.1 20.2 68.4 17 -5.7 21.8
14:15 1020 30.12 850 25.1 18.9 66 18 -6.1 21
14:20 1020 30.12 850 25.1 20 68 16 -6.8 19.7
14:25 1020 30.12 849 25.07 20.4 68.7 14 -7.5 18.5
14:30 1020 30.12 849 25.07 20.5 68.9 15 -7.2 19
14:35 1020 30.12 849 25.07 20.4 68.6 15 -6.6 20.1
14:40 1020 30.12 849 25.07 20.2 68.4 15 -7.4 18.6
14:45 1020 30.12 849 25.07 20.1 68.1 15 -7.3 18.8
14:50 1020 30.12 849 25.07 19.7 67.4 16 -6.8 19.8
14:55 1020 30.12 849 25.07 19.6 67.2 15 -7.7 18.2
15:00 1020 30.12 849 25.07 19.7 67.4 16 -6.9 19.6
15:05 1020 30.12 849 25.07 19 66.1 17 -6.6 20.1
15:10 1020 30.12 849 25.07 18.7 65.7 16 -7.6 18.2
15:15 1020 30.12 849 25.07 19.3 66.7 16 -6.7 20
15:20 1020 30.12 849 25.07 19.9 67.9 15 -7.5 18.5
15:25 1020 30.12 849 25.07 20.4 68.7 14 -7.8 18
15:30 1020 30.12 849 25.07 20.7 69.3 14 -7.3 18.9
15:35 1020 30.12 849 25.07 20.7 69.3 14 -7.4 18.7
15:40 1020 30.12 849 25.07 20.7 69.2 15 -7.2 19.1
15:45 1020 30.12 849 25.07 20.7 69.2 14 -7.6 18.3
15:50 1019 30.09 849 25.07 20.5 68.9 14 -7.7 18.2
15:55 1019 30.09 849 25.07 20.8 69.4 14 -7.3 18.8
16:00 1019 30.09 849 25.07 20.9 69.6 15 -6.5 20.2
16:05 1019 30.09 849 25.07 20.7 69.3 15 -7 19.5
16:10 1019 30.09 849 25.07 20.8 69.5 15 -6.3 20.7
16:15 1019 30.09 849 25.07 20.8 69.4 14 -7.2 19.1
16:20 1019 30.09 848 25.04 21 69.7 15 -6.4 20.5
16:25 1019 30.09 848 25.04 20.9 69.6 15 -6.5 20.2
16:30 1019 30.09 848 25.04 21.1 70 15 -6.8 19.8
16:35 1019 30.09 848 25.04 21.4 70.6 14 -7.2 19
16:40 1019 30.09 848 25.04 21.1 69.9 14 -7.2 19.1
16:45 1019 30.09 848 25.04 21.5 70.7 14 -7.4 18.8
16:50 1019 30.09 848 25.04 21.8 71.3 14 -6.5 20.3
16:55 1019 30.09 848 25.04 21.8 71.3 13 -7.5 18.5
17:00 1019 30.09 848 25.04 22.4 72.3 10 -10 13.9
17:05 1019 30.09 848 25.04 22.5 72.4 11 -8.9 16
17:10 1019 30.09 848 25.04 22.5 72.5 11 -9.2 15.4
17:15 1019 30.09 848 25.04 22.3 72.1 11 -9.9 14.2
17:20 1019 30.09 848 25.04 22.4 72.3 10 -10.4 13.2
17:25 1019 30.09 848 25.04 22.2 72 10 -10.4 13.3
17:30 1019 30.09 848 25.04 22.1 71.9 11 -9.3 15.2
17:35 1019 30.09 848 25.04 22.3 72.1 11 -9.5 14.9
17:40 1019 30.09 848 25.04 22.4 72.3 11 -8.9 16
17:45 1019 30.09 848 25.04 22.1 71.8 11 -9.4 15.2
17:50 1019 30.09 848 25.04 21.8 71.3 12 -9 15.8
17:55 1019 30.09 848 25.04 21.9 71.4 12 -9.1 15.6
18:00 1019 30.09 848 25.04 21.8 71.2 12 -8.7 16.3
18:05 1019 30.09 848 25.04 21.7 71.1 12 -9.1 15.6
18:10 1019 30.09 848 25.04 21.6 70.9 12 -8.8 16.1
18:15 1019 30.09 848 25.04 21.8 71.3 12 -8.9 16
18:20 1019 30.09 848 25.04 21.6 70.8 13 -7.6 18.3
18:25 1019 30.09 848 25.04 20.9 69.7 15 -6.3 20.7
18:30 1019 30.09 848 25.04 19.9 67.9 17 -5.4 22.3
18:35 1019 30.09 848 25.04 19.5 67.2 18 -5 23
18:40 1019 30.09 848 25.04 19.3 66.8 19 -5.1 22.8
18:45 1019 30.09 848 25.04 19.2 66.5 19 -5.2 22.7
18:50 1019 30.09 848 25.04 19.1 66.4 22 -3 26.7
18:55 1019 30.09 848 25.04 19 66.2 20 -4.4 24.1
19:00 1019 30.09 848 25.04 19 66.1 21 -4 24.8
19:05 1019 30.09 848 25.04 18.9 66 21 -4 24.8
19:10 1019 30.09 848 25.04 18.7 65.7 22 -3.5 25.6
19:15 1019 30.09 848 25.04 18.5 65.3 21 -4.1 24.6
19:20 1019 30.09 848 25.04 18.3 64.9 21 -4.3 24.2
19:25 1019 30.09 848 25.04 18.1 64.6 22 -4 24.7
19:30 1019 30.09 848 25.04 18 64.5 22 -3.9 25
19:35 1019 30.09 848 25.04 17.9 64.2 21 -4.7 23.6
19:40 1019 30.09 848 25.04 17.8 64 22 -3.8 25.1
19:45 1019 30.09 848 25.04 17.7 63.8 23 -3.6 25.5
19:50 1019 30.09 848 25.04 17.4 63.3 25 -2.6 27.4
19:55 1019 30.09 848 25.04 17 62.6 26 -2.8 27
20:00 1019 30.09 848 25.04 16.8 62.3 25 -3 26.7
20:05 1019 30.09 848 25.04 16.6 62 25 -3.6 25.5
20:10 1019 30.09 848 25.04 16.8 62.2 25 -3.1 26.3
20:15 1019 30.09 848 25.04 16.6 61.9 27 -2.5 27.5
20:20 1019 30.09 848 25.04 16.1 61 30 -1.5 29.2
20:25 1019 30.09 848 25.04 15.3 59.5 31 -1.6 29.1
20:30 1019 30.09 848 25.04 14.7 58.5 32 -1.8 28.7
20:35 1019 30.09 848 25.04 14.3 57.8 32 -2 28.4
20:40 1019 30.09 848 25.04 14.1 57.3 32 -2.2 28
20:45 1019 30.09 848 25.04 14 57.1 32 -2.5 27.5
20:50 1019 30.09 848 25.04 13.9 57 33 -2.1 28.2
20:55 1019 30.09 848 25.04 13.4 56.1 34 -2 28.5
21:00 1019 30.09 848 25.04 12.9 55.2 36 -1.6 29.1
21:05 1019 30.09 848 25.04 12.5 54.5 34 -2.8 27
21:10 1019 30.09 848 25.04 12.6 54.6 35 -2.3 27.8
21:15 1019 30.09 848 25.04 12.4 54.3 38 -1.4 29.5
21:20 1019 30.09 848 25.04 11.9 53.5 37 -2.1 28.3
21:25 1019 30.09 848 25.04 11.6 53 38 -2.1 28.2
21:30 1019 30.09 848 25.04 11.5 52.6 37 -2.7 27.1
21:35 1019 30.09 848 25.04 11.4 52.5 35 -3.4 25.9
21:40 1019 30.09 848 25.04 11.6 52.8 35 -3.3 26.1
21:45 1019 30.09 848 25.04 11.8 53.2 34 -3.6 25.5
21:50 1019 30.09 848 25.04 12 53.5 33 -3.8 25.1
21:55 1019 30.09 848 25.04 12.1 53.9 32 -3.8 25.1
22:00 1019 30.09 848 25.04 12.3 54.1 32 -3.7 25.3
22:05 1019 30.09 848 25.04 12.1 53.7 34 -3.3 26
22:10 1019 30.09 848 25.04 11.8 53.2 35 -3.1 26.3
22:15 1019 30.09 848 25.04 11.8 53.2 35 -3.3 26.1
22:20 1018 30.06 848 25.04 11.9 53.3 33 -3.7 25.4
22:25 1018 30.06 848 25.04 11.8 53.3 35 -3.1 26.4
22:30 1018 30.06 848 25.04 11.5 52.8 36 -3 26.5
22:35 1018 30.06 848 25.04 11.5 52.8 35 -3.5 25.6
22:40 1018 30.06 848 25.04 11.6 52.9 35 -3.4 25.9
22:45 1018 30.06 847 25.01 11.6 52.9 34 -3.8 25.2
22:50 1018 30.06 847 25.01 11.8 53.2 33 -3.7 25.3
22:55 1018 30.06 847 25.01 11.8 53.3 33 -3.8 25.1
23:00 1018 30.06 847 25.01 11.8 53.2 34 -3.7 25.4
23:05 1018 30.06 847 25.01 11.8 53.2 34 -3.7 25.3
23:10 1018 30.06 847 25.01 11.6 52.9 34 -3.6 25.4
23:15 1018 30.06 847 25.01 11.5 52.7 34 -3.6 25.5
23:20 1018 30.06 847 25.01 11.4 52.5 34 -4 24.8
23:25 1018 30.06 847 25.01 11.5 52.7 33 -4.1 24.6
23:30 1018 30.06 847 25.01 11.7 53 33 -4.2 24.4
23:35 1018 30.06 847 25.01 11.7 53.1 32 -4.3 24.2
23:40 1018 30.06 847 25.01 11.9 53.4 33 -4 24.9
23:45 1018 30.06 847 25.01 11.9 53.5 32 -4.1 24.6
23:50 1018 30.06 847 25.01 11.9 53.3 33 -4 24.8
23:55 1018 30.06 847 25.01 11.9 53.4 32 -4.1 24.6
24:00 1018 30.06 847 25.01 11.9 53.5 32 -4.1 24.6